createdAt,value
2023-02-03T00:00:59.712Z,100.00
2023-02-03T00:03:26.430Z,100.00
2023-02-03T00:05:53.836Z,100.00
2023-02-03T00:08:20.562Z,100.00
2023-02-03T00:10:47.541Z,100.00
2023-02-03T00:13:14.526Z,100.00
2023-02-03T00:15:41.209Z,100.00
2023-02-03T00:18:07.837Z,100.00
2023-02-03T00:20:34.517Z,100.00
2023-02-03T00:23:09.975Z,100.00
2023-02-03T00:25:37.465Z,100.00
2023-02-03T00:28:05.617Z,100.00
2023-02-03T00:30:35.036Z,100.00
2023-02-03T00:33:02.485Z,100.00
2023-02-03T00:35:29.381Z,100.00
2023-02-03T00:37:57.721Z,100.00
2023-02-03T00:40:27.007Z,100.00
2023-02-03T00:42:55.006Z,100.00
2023-02-03T00:45:21.690Z,100.00
2023-02-03T00:47:48.347Z,100.00
2023-02-03T00:50:14.990Z,100.00
2023-02-03T00:52:41.701Z,100.00
2023-02-03T00:55:08.910Z,100.00
2023-02-03T00:57:35.591Z,100.00
2023-02-03T01:00:02.507Z,100.00
2023-02-03T01:02:29.233Z,100.00
2023-02-03T01:04:55.895Z,100.00
2023-02-03T01:07:22.567Z,100.00
2023-02-03T01:09:49.218Z,100.00
2023-02-03T01:12:15.919Z,100.00
2023-02-03T01:14:42.700Z,100.00
2023-02-03T01:17:09.647Z,100.00
2023-02-03T01:19:36.311Z,100.00
2023-02-03T01:22:03.002Z,100.00
2023-02-03T01:24:30.860Z,100.00
2023-02-03T01:26:57.672Z,100.00
2023-02-03T01:29:24.381Z,100.00
2023-02-03T01:31:51.041Z,100.00
2023-02-03T01:34:18.644Z,100.00
2023-02-03T01:36:47.010Z,100.00
2023-02-03T01:39:14.535Z,100.00
2023-02-03T01:41:41.634Z,100.00
2023-02-03T01:44:44.140Z,100.00
2023-02-03T01:47:35.174Z,100.00
2023-02-03T01:50:21.041Z,100.00
2023-02-03T01:53:03.946Z,100.00
2023-02-03T01:55:38.932Z,100.00
2023-02-03T01:58:26.080Z,100.00
2023-02-03T02:00:54.292Z,100.00
2023-02-03T02:03:25.084Z,100.00
2023-02-03T02:06:00.659Z,100.00
2023-02-03T02:08:27.680Z,100.00
2023-02-03T02:10:54.637Z,100.00
2023-02-03T02:13:22.703Z,100.00
2023-02-03T02:15:58.703Z,100.00
2023-02-03T02:18:34.439Z,100.00
2023-02-03T02:21:24.080Z,100.00
2023-02-03T02:24:23.280Z,100.00
2023-02-03T02:27:14.417Z,100.00
2023-02-03T02:29:59.259Z,100.00
2023-02-03T02:32:28.665Z,100.00
2023-02-03T02:35:18.575Z,100.00
2023-02-03T02:37:50.034Z,100.00
2023-02-03T02:40:35.245Z,100.00
2023-02-03T02:43:10.954Z,100.00
2023-02-03T02:45:58.970Z,100.00
2023-02-03T02:48:47.840Z,100.00
2023-02-03T02:51:16.607Z,100.00
2023-02-03T02:53:49.499Z,100.00
2023-02-03T02:56:17.609Z,100.00
2023-02-03T02:58:48.743Z,100.00
2023-02-03T03:01:16.529Z,100.00
2023-02-03T03:03:45.252Z,100.00
2023-02-03T03:06:35.514Z,100.00
2023-02-03T03:09:12.459Z,100.00
2023-02-03T03:11:45.118Z,100.00
2023-02-03T03:14:15.781Z,100.00
2023-02-03T03:16:48.542Z,100.00
2023-02-03T03:19:22.618Z,100.00
2023-02-03T03:21:57.691Z,100.00
2023-02-03T03:24:29.624Z,100.00
2023-02-03T03:27:02.569Z,100.00
2023-02-03T03:29:48.401Z,100.00
2023-02-03T03:32:15.722Z,100.00
2023-02-03T03:34:42.575Z,100.00
2023-02-03T03:37:12.189Z,100.00
2023-02-03T03:40:03.069Z,100.00
2023-02-03T03:42:35.891Z,100.00
2023-02-03T03:45:20.155Z,100.00
2023-02-03T03:48:18.875Z,100.00
2023-02-03T03:50:52.832Z,100.00
2023-02-03T03:53:20.694Z,100.00
2023-02-03T03:55:50.517Z,100.00
2023-02-03T03:58:24.250Z,100.00
2023-02-03T04:00:53.843Z,100.00
2023-02-03T04:03:36.175Z,100.00
2023-02-03T04:06:02.888Z,100.00
2023-02-03T04:08:29.579Z,100.00
2023-02-03T04:10:56.260Z,100.00
2023-02-03T04:13:23.104Z,100.00
2023-02-03T04:15:49.782Z,100.00
2023-02-03T04:18:17.147Z,100.00
2023-02-03T04:20:43.703Z,100.00
2023-02-03T04:23:10.725Z,100.00
2023-02-03T04:25:37.412Z,100.00
2023-02-03T04:28:04.314Z,100.00
2023-02-03T04:30:31.041Z,100.00
2023-02-03T04:32:57.870Z,100.00
2023-02-03T04:35:24.565Z,100.00
2023-02-03T04:37:51.303Z,100.00
2023-02-03T04:40:18.303Z,100.00
2023-02-03T04:42:44.941Z,100.00
2023-02-03T04:45:12.933Z,100.00
2023-02-03T04:47:40.912Z,100.00
2023-02-03T04:50:08.103Z,100.00
2023-02-03T04:52:34.866Z,100.00
2023-02-03T04:55:01.768Z,100.00
2023-02-03T04:57:28.371Z,100.00
2023-02-03T04:59:55.065Z,100.00
2023-02-03T05:02:21.761Z,100.00
2023-02-03T05:04:48.417Z,100.00
2023-02-03T05:07:15.068Z,100.00
2023-02-03T05:09:41.917Z,100.00
2023-02-03T05:12:08.612Z,100.00
2023-02-03T05:14:35.250Z,100.00
2023-02-03T05:17:01.906Z,100.00
2023-02-03T05:19:28.599Z,100.00
2023-02-03T05:21:55.220Z,100.00
2023-02-03T05:24:21.872Z,100.00
2023-02-03T05:26:48.478Z,100.00
2023-02-03T05:29:15.110Z,100.00
2023-02-03T05:31:41.781Z,100.00
2023-02-03T05:34:08.617Z,100.00
2023-02-03T05:36:35.233Z,100.00
2023-02-03T05:39:02.039Z,100.00
2023-02-03T05:41:47.112Z,100.00
2023-02-03T05:44:13.735Z,100.00
2023-02-03T05:46:40.349Z,100.00
2023-02-03T05:49:06.978Z,100.00
2023-02-03T05:51:33.643Z,100.00
2023-02-03T05:54:00.389Z,100.00
2023-02-03T05:56:27.022Z,100.00
2023-02-03T05:58:53.687Z,100.00
2023-02-03T06:01:20.499Z,100.00
2023-02-03T06:03:47.750Z,100.00
2023-02-03T06:06:14.730Z,100.00
2023-02-03T06:08:41.728Z,100.00
2023-02-03T06:11:08.770Z,100.00
2023-02-03T06:13:35.355Z,100.00
2023-02-03T06:16:02.401Z,100.00
2023-02-03T06:18:29.143Z,100.00
2023-02-03T06:20:55.881Z,100.00
2023-02-03T06:23:23.044Z,100.00
2023-02-03T06:25:51.470Z,100.00
2023-02-03T06:28:18.794Z,100.00
2023-02-03T06:30:45.625Z,100.00
2023-02-03T06:33:12.407Z,100.00
2023-02-03T06:35:39.136Z,100.00
2023-02-03T06:38:05.876Z,100.00
2023-02-03T06:40:32.647Z,100.00
2023-02-03T06:42:59.415Z,100.00
2023-02-03T06:45:26.118Z,100.00
2023-02-03T06:47:52.854Z,100.00
2023-02-03T06:50:19.711Z,100.00
2023-02-03T06:52:46.571Z,100.00
2023-02-03T06:55:13.231Z,100.00
2023-02-03T06:57:47.442Z,100.00
2023-02-03T07:00:18.783Z,100.00
2023-02-03T07:02:46.857Z,100.00
2023-02-03T07:05:13.678Z,100.00
2023-02-03T07:07:40.422Z,100.00
2023-02-03T07:10:07.951Z,100.00
2023-02-03T07:12:36.697Z,100.00
2023-02-03T07:15:07.451Z,100.00
2023-02-03T07:17:34.189Z,100.00
2023-02-03T07:20:00.905Z,100.00
2023-02-03T07:22:28.151Z,100.00
2023-02-03T07:24:54.709Z,100.00
2023-02-03T07:27:21.810Z,100.00
2023-02-03T07:29:48.657Z,100.00
2023-02-03T07:32:15.747Z,99.95
2023-02-03T07:34:42.414Z,96.95
2023-02-03T07:37:09.252Z,96.45
2023-02-03T07:39:36.110Z,95.99
2023-02-03T07:42:03.003Z,95.47
2023-02-03T07:44:30.237Z,95.51
2023-02-03T07:46:57.903Z,95.85
2023-02-03T07:49:25.299Z,95.49
2023-02-03T07:51:52.622Z,95.06
2023-02-03T07:54:19.486Z,93.33
2023-02-03T07:56:46.728Z,93.11
2023-02-03T07:59:13.814Z,92.86
2023-02-03T08:01:40.927Z,91.99
2023-02-03T08:04:09.021Z,93.73
2023-02-03T08:06:36.149Z,95.05
2023-02-03T08:09:03.366Z,95.77
2023-02-03T08:11:30.751Z,96.32
2023-02-03T08:13:57.663Z,96.75
2023-02-03T08:16:24.803Z,98.33
2023-02-03T08:18:52.276Z,99.20
2023-02-03T08:21:19.560Z,98.01
2023-02-03T08:23:46.588Z,96.16
2023-02-03T08:26:13.683Z,93.08
2023-02-03T08:28:41.350Z,91.27
2023-02-03T08:31:12.883Z,91.02
2023-02-03T08:33:40.330Z,88.73
2023-02-03T08:36:07.285Z,90.57
2023-02-03T08:38:34.419Z,90.81
2023-02-03T08:41:01.443Z,85.21
2023-02-03T08:43:28.798Z,84.67
2023-02-03T08:45:55.946Z,71.74
2023-02-03T08:48:23.104Z,63.18
2023-02-03T08:50:53.217Z,55.29
2023-02-03T08:53:20.717Z,48.69
2023-02-03T08:55:47.974Z,43.45
2023-02-03T08:58:15.320Z,41.10
2023-02-03T09:00:43.067Z,37.92
2023-02-03T09:03:10.247Z,37.12
2023-02-03T09:05:37.631Z,36.74
2023-02-03T09:08:04.644Z,36.72
2023-02-03T09:10:31.856Z,38.67
2023-02-03T09:12:59.080Z,37.57
2023-02-03T09:15:27.406Z,35.76
2023-02-03T09:17:55.645Z,34.56
2023-02-03T09:20:24.815Z,31.91
2023-02-03T09:22:52.468Z,32.27
2023-02-03T09:25:19.404Z,34.23
2023-02-03T09:27:46.319Z,33.20
2023-02-03T09:30:14.953Z,34.47
2023-02-03T09:32:42.171Z,32.55
2023-02-03T09:35:09.409Z,38.39
2023-02-03T09:37:36.506Z,36.45
2023-02-03T09:40:04.260Z,37.64
2023-02-03T09:42:35.262Z,42.32
2023-02-03T09:45:29.380Z,43.79
2023-02-03T09:48:05.725Z,46.66
2023-02-03T09:50:56.750Z,46.41
2023-02-03T09:53:33.011Z,48.61
2023-02-03T09:55:59.735Z,49.29
2023-02-03T09:58:32.498Z,51.21
2023-02-03T10:01:06.681Z,53.92
2023-02-03T10:03:33.255Z,52.97
2023-02-03T10:06:28.225Z,56.66
2023-02-03T10:09:03.796Z,56.21
2023-02-03T10:11:40.719Z,55.60
2023-02-03T10:14:25.714Z,54.64
2023-02-03T10:17:35.320Z,54.76
2023-02-03T10:20:13.638Z,54.68
2023-02-03T10:22:52.393Z,59.38
2023-02-03T10:25:57.104Z,60.13
2023-02-03T10:28:30.121Z,57.82
2023-02-03T10:30:59.227Z,52.38
2023-02-03T10:33:28.392Z,54.93
2023-02-03T10:36:18.197Z,56.61
2023-02-03T10:38:59.660Z,57.30
2023-02-03T10:41:28.918Z,53.10
2023-02-03T10:43:57.669Z,52.49
2023-02-03T10:46:36.117Z,54.78
2023-02-03T10:49:02.761Z,54.18
2023-02-03T10:51:55.689Z,52.44
2023-02-03T10:54:29.862Z,53.39
2023-02-03T10:57:02.871Z,53.36
2023-02-03T10:59:36.011Z,53.41
2023-02-03T11:02:21.601Z,51.88
2023-02-03T11:04:48.337Z,51.88
2023-02-03T11:07:26.907Z,51.46
2023-02-03T11:09:53.447Z,49.73
2023-02-03T11:12:20.221Z,51.43
2023-02-03T11:14:49.008Z,52.79
2023-02-03T11:17:29.727Z,53.56
2023-02-03T11:20:12.884Z,52.91
2023-02-03T11:22:41.918Z,52.58
2023-02-03T11:25:25.996Z,53.51
2023-02-03T11:27:54.359Z,52.70
2023-02-03T11:30:26.979Z,51.17
2023-02-03T11:32:54.140Z,50.69
2023-02-03T11:35:29.542Z,52.11
2023-02-03T11:37:58.246Z,52.55
2023-02-03T11:40:27.257Z,50.48
2023-02-03T11:42:56.971Z,49.42
2023-02-03T11:45:23.520Z,47.13
2023-02-03T11:47:55.121Z,50.70
2023-02-03T11:50:33.510Z,49.21
2023-02-03T11:53:23.814Z,49.14
2023-02-03T11:56:04.579Z,48.50
2023-02-03T11:58:49.279Z,48.29
2023-02-03T12:01:53.404Z,48.77
2023-02-03T12:04:38.704Z,48.60
2023-02-03T12:07:23.808Z,50.75
2023-02-03T12:10:00.364Z,50.17
2023-02-03T12:12:39.192Z,50.06
2023-02-03T12:15:30.373Z,49.29
2023-02-03T12:18:18.693Z,47.84
2023-02-03T12:21:02.976Z,49.24
2023-02-03T12:23:34.531Z,49.77
2023-02-03T12:26:01.078Z,50.54
2023-02-03T12:28:45.648Z,50.58
2023-02-03T12:31:39.648Z,48.89
2023-02-03T12:34:21.306Z,48.85
2023-02-03T12:37:12.403Z,47.04
2023-02-03T12:39:50.646Z,48.80
2023-02-03T12:42:20.122Z,47.73
2023-02-03T12:44:50.232Z,47.16
2023-02-03T12:47:20.860Z,48.59
2023-02-03T12:50:14.930Z,46.93
2023-02-03T12:52:49.144Z,46.86
2023-02-03T12:55:35.168Z,46.68
2023-02-03T12:58:10.767Z,46.62
2023-02-03T13:00:52.166Z,46.26
2023-02-03T13:03:28.604Z,46.81
2023-02-03T13:06:15.978Z,46.47
2023-02-03T13:08:52.251Z,47.10
2023-02-03T13:11:24.788Z,47.77
2023-02-03T13:14:02.192Z,46.60
2023-02-03T13:16:35.465Z,47.07
2023-02-03T13:19:13.730Z,48.22
2023-02-03T13:21:42.004Z,46.34
2023-02-03T13:24:11.394Z,47.62
2023-02-03T13:26:48.705Z,45.38
2023-02-03T13:29:40.260Z,45.34
2023-02-03T13:32:43.689Z,44.10
2023-02-03T13:35:34.646Z,44.58
2023-02-03T13:38:13.673Z,44.79
2023-02-03T13:41:03.415Z,44.27
2023-02-03T13:43:39.320Z,44.73
2023-02-03T13:46:17.934Z,43.03
2023-02-03T13:48:46.967Z,43.83
2023-02-03T13:51:18.114Z,44.53
2023-02-03T13:53:47.469Z,45.26
2023-02-03T13:56:23.008Z,42.20
2023-02-03T13:59:07.250Z,43.60
2023-02-03T14:01:39.933Z,43.84
2023-02-03T14:04:28.073Z,43.24
2023-02-03T14:06:57.355Z,43.90
2023-02-03T14:09:34.434Z,44.74
2023-02-03T14:12:16.171Z,45.51
2023-02-03T14:15:17.421Z,43.49
2023-02-03T14:17:43.890Z,44.57
2023-02-03T14:20:25.348Z,41.97
2023-02-03T14:22:58.619Z,42.95
2023-02-03T14:25:27.333Z,44.40
2023-02-03T14:28:02.644Z,44.27
2023-02-03T14:30:29.349Z,44.38
2023-02-03T14:32:58.641Z,44.36
2023-02-03T14:35:40.264Z,44.79
2023-02-03T14:38:14.041Z,44.96
2023-02-03T14:40:47.062Z,45.58
2023-02-03T14:43:25.566Z,45.78
2023-02-03T14:46:05.280Z,45.99
2023-02-03T14:48:54.378Z,46.42
2023-02-03T14:51:56.538Z,45.51
2023-02-03T14:54:50.364Z,46.04
2023-02-03T14:57:27.210Z,46.74
2023-02-03T15:00:19.642Z,45.89
2023-02-03T15:03:10.946Z,46.93
2023-02-03T15:05:46.495Z,47.16
2023-02-03T15:08:33.538Z,46.51
2023-02-03T15:11:01.599Z,46.58
2023-02-03T15:13:31.217Z,47.12
2023-02-03T15:16:01.418Z,47.82
2023-02-03T15:18:36.269Z,47.26
2023-02-03T15:21:03.726Z,47.84
2023-02-03T15:23:38.778Z,48.50
2023-02-03T15:26:44.656Z,47.96
2023-02-03T15:29:21.972Z,48.17
2023-02-03T15:31:53.666Z,48.33
2023-02-03T15:34:29.854Z,48.82
2023-02-03T15:37:01.938Z,49.65
2023-02-03T15:39:34.985Z,50.15
2023-02-03T15:42:05.502Z,50.28
2023-02-03T15:45:01.579Z,50.79
2023-02-03T15:47:38.477Z,50.99
2023-02-03T15:50:24.085Z,51.06
2023-02-03T15:52:53.713Z,51.40
2023-02-03T15:55:39.419Z,51.81
2023-02-03T15:58:06.917Z,50.84
2023-02-03T16:00:35.449Z,50.18
2023-02-03T16:03:05.460Z,50.78
2023-02-03T16:05:34.790Z,51.77
2023-02-03T16:08:40.255Z,53.76
2023-02-03T16:11:34.501Z,54.12
2023-02-03T16:14:07.117Z,54.73
2023-02-03T16:16:39.578Z,57.00
2023-02-03T16:19:14.448Z,59.34
2023-02-03T16:21:50.178Z,59.18
2023-02-03T16:24:35.085Z,61.67
2023-02-03T16:27:21.625Z,62.53
2023-02-03T16:30:07.091Z,62.96
2023-02-03T16:32:52.387Z,64.54
2023-02-03T16:35:37.493Z,65.34
2023-02-03T16:38:40.885Z,67.71
2023-02-03T16:41:35.593Z,69.38
2023-02-03T16:44:20.995Z,69.28
2023-02-03T16:47:06.817Z,68.11
2023-02-03T16:49:52.101Z,68.25
2023-02-03T16:52:18.720Z,70.41
2023-02-03T16:54:45.412Z,74.01
2023-02-03T16:57:12.041Z,73.06
2023-02-03T16:59:38.602Z,73.94
2023-02-03T17:02:05.273Z,71.71
2023-02-03T17:04:31.991Z,71.50
2023-02-03T17:06:58.505Z,71.16
2023-02-03T17:09:25.179Z,71.96
2023-02-03T17:11:52.023Z,73.29
2023-02-03T17:14:18.677Z,72.91
2023-02-03T17:16:45.330Z,72.57
2023-02-03T17:19:12.508Z,75.05
2023-02-03T17:21:39.429Z,73.35
2023-02-03T17:24:06.615Z,72.22
2023-02-03T17:26:34.394Z,71.42
2023-02-03T17:29:03.372Z,71.28
2023-02-03T17:31:31.476Z,70.07
2023-02-03T17:33:58.605Z,70.62
2023-02-03T17:36:25.167Z,71.46
2023-02-03T17:55:22.820Z,77.42
2023-02-03T17:57:49.370Z,77.70
2023-02-03T18:00:17.356Z,78.91
2023-02-03T18:02:44.255Z,78.64
2023-02-03T18:05:11.326Z,80.17
2023-02-03T18:07:37.864Z,79.33
2023-02-03T18:10:04.735Z,79.16
2023-02-03T18:12:31.337Z,81.04
2023-02-03T18:14:58.004Z,80.26
2023-02-03T18:17:24.609Z,79.78
2023-02-03T18:19:55.706Z,79.56
2023-02-03T18:22:23.110Z,78.83
2023-02-03T18:24:52.655Z,78.02
2023-02-03T18:27:19.642Z,77.72
2023-02-03T18:29:47.256Z,77.17
2023-02-03T18:32:15.845Z,78.13
2023-02-03T18:34:42.416Z,80.84
2023-02-03T18:37:09.197Z,81.87
2023-02-03T18:39:35.931Z,82.85
2023-02-03T18:42:03.073Z,81.39
2023-02-03T18:44:29.643Z,79.85
2023-02-03T18:46:57.104Z,82.51
2023-02-03T18:49:23.722Z,82.26
2023-02-03T18:51:50.277Z,83.17
2023-02-03T18:54:16.824Z,85.27
2023-02-03T18:56:43.484Z,84.15
2023-02-03T18:59:11.295Z,85.69
2023-02-03T19:01:39.184Z,86.02
2023-02-03T19:04:06.620Z,86.11
2023-02-03T19:06:34.428Z,85.08
2023-02-03T19:09:01.441Z,84.15
2023-02-03T19:11:28.629Z,83.40
2023-02-03T19:13:55.489Z,82.31
2023-02-03T19:16:22.134Z,84.12
2023-02-03T19:18:48.745Z,83.96
2023-02-03T19:21:15.359Z,83.32
2023-02-03T19:23:42.195Z,82.74
2023-02-03T19:26:10.009Z,82.33
2023-02-03T19:28:37.226Z,83.01
2023-02-03T19:31:13.227Z,81.62
2023-02-03T19:33:39.934Z,82.16
2023-02-03T19:36:07.326Z,84.12
2023-02-03T19:38:34.791Z,83.67
2023-02-03T19:41:02.537Z,82.25
2023-02-03T19:43:31.247Z,81.41
2023-02-03T19:45:57.989Z,80.78
2023-02-03T19:48:25.041Z,80.96
2023-02-03T19:50:51.678Z,82.01
2023-02-03T19:53:18.777Z,82.78
2023-02-03T19:55:46.459Z,82.15
2023-02-03T19:58:14.369Z,82.93
2023-02-03T20:00:42.350Z,83.39
2023-02-03T20:03:10.502Z,82.70
2023-02-03T20:05:37.601Z,81.10
2023-02-03T20:08:05.237Z,80.87
2023-02-03T20:10:32.922Z,82.15
2023-02-03T20:13:00.017Z,81.85
2023-02-03T20:15:26.948Z,81.28
2023-02-03T20:17:53.671Z,80.38
2023-02-03T20:20:20.950Z,79.86
2023-02-03T20:22:48.633Z,80.86
2023-02-03T20:25:15.998Z,82.07
2023-02-03T20:27:42.813Z,85.04
2023-02-03T20:30:10.458Z,85.94
2023-02-03T20:32:37.220Z,86.95
2023-02-03T20:35:04.980Z,88.21
2023-02-03T20:37:32.269Z,88.78
2023-02-03T20:39:58.670Z,89.25
2023-02-03T20:42:25.205Z,90.10
2023-02-03T20:44:51.751Z,90.29
2023-02-03T20:47:19.104Z,90.46
2023-02-03T20:49:47.852Z,90.25
2023-02-03T20:52:17.226Z,89.90
2023-02-03T20:54:44.075Z,88.32
2023-02-03T20:57:14.708Z,87.16
2023-02-03T20:59:42.007Z,87.64
2023-02-03T21:02:17.773Z,86.56
2023-02-03T21:05:00.729Z,86.70
2023-02-03T21:07:30.638Z,86.68
2023-02-03T21:10:00.923Z,87.50
2023-02-03T21:12:28.565Z,87.28
2023-02-03T21:14:55.535Z,87.25
2023-02-03T21:17:26.770Z,86.03
2023-02-03T21:19:54.748Z,88.25
2023-02-03T21:22:24.100Z,88.26
2023-02-03T21:24:57.063Z,88.68
2023-02-03T21:27:31.020Z,89.68
2023-02-03T21:29:59.550Z,88.27
2023-02-03T21:32:36.196Z,87.32
2023-02-03T21:35:02.770Z,89.53
2023-02-03T21:37:41.453Z,89.66
2023-02-03T21:40:22.659Z,88.60
2023-02-03T21:42:49.272Z,89.07
2023-02-03T21:45:21.492Z,89.27
2023-02-03T21:47:50.139Z,89.48
2023-02-03T21:50:35.207Z,89.09
2023-02-03T21:53:07.546Z,93.88
2023-02-03T21:55:34.714Z,89.93
2023-02-03T21:58:29.079Z,89.15
2023-02-03T22:00:58.259Z,88.25
2023-02-03T22:03:24.871Z,89.04
2023-02-03T22:05:52.375Z,87.84
2023-02-03T22:08:23.094Z,87.50
2023-02-03T22:10:50.130Z,89.26
2023-02-03T22:13:17.779Z,91.22
2023-02-03T22:15:46.023Z,91.19
2023-02-03T22:18:12.597Z,90.92
2023-02-03T22:20:39.130Z,92.00
2023-02-03T22:23:06.002Z,91.93
2023-02-03T22:25:32.718Z,90.15
2023-02-03T22:27:59.353Z,90.10
2023-02-03T22:30:25.915Z,89.76
2023-02-03T22:32:52.545Z,88.72
2023-02-03T22:35:19.110Z,87.39
2023-02-03T22:37:45.729Z,86.33
2023-02-03T22:40:12.636Z,86.15
2023-02-03T22:42:39.386Z,85.96
2023-02-03T22:45:06.517Z,87.29
2023-02-03T22:47:33.042Z,88.41
2023-02-03T22:49:59.622Z,89.18
2023-02-03T22:52:26.148Z,89.29
2023-02-03T22:54:52.744Z,90.00
2023-02-03T22:57:21.944Z,89.47
2023-02-03T22:59:48.472Z,88.88
2023-02-03T23:02:15.106Z,88.69
2023-02-03T23:04:41.803Z,87.47
2023-02-03T23:07:08.697Z,86.61
2023-02-03T23:09:35.323Z,86.88
2023-02-03T23:12:01.949Z,88.18
2023-02-03T23:14:28.796Z,88.20
2023-02-03T23:16:55.339Z,89.35
2023-02-03T23:19:21.891Z,89.08
2023-02-03T23:21:48.505Z,89.25
2023-02-03T23:24:15.075Z,89.70
2023-02-03T23:26:41.710Z,89.92
2023-02-03T23:29:08.664Z,89.37
2023-02-03T23:31:35.486Z,89.20
2023-02-03T23:34:20.453Z,89.40
2023-02-03T23:36:47.036Z,88.63
2023-02-03T23:39:13.602Z,88.12
2023-02-03T23:41:40.181Z,89.12
2023-02-03T23:44:06.747Z,89.31
2023-02-03T23:46:33.321Z,89.49
2023-02-03T23:48:59.865Z,90.06
2023-02-03T23:51:26.383Z,90.56
2023-02-03T23:53:52.891Z,90.70
2023-02-03T23:56:19.405Z,90.92
2023-02-03T23:58:45.932Z,92.07
